Time;durP1;ratioP1;P1;durP2;ratioP2;P2;SDS_P1;SDS_P2;PMS_P1;PMS_P2;Temp;Humidity;BMP_temperature;BMP_pressure;BME280_temperature;BME280_humidity;BME280_pressure;Samples;Min_cycle;Max_cycle;Signal;HPM_P1;HPM_P2
2024/01/30 00:00:25;;;;;;;1.15;1.05;;;17.50;75.90;;;;;;5019787;28;20053;-85
2024/01/30 00:02:51;;;;;;;1.05;1.05;;;17.50;75.20;;;;;;5007059;28;20041;-86
2024/01/30 00:05:17;;;;;;;1.10;1.10;;;17.50;75.10;;;;;;5007142;28;20075;-86
2024/01/30 00:07:42;;;;;;;1.40;1.30;;;17.50;75.00;;;;;;5019572;28;20033;-84
2024/01/30 00:10:08;;;;;;;1.40;1.02;;;17.50;74.90;;;;;;5025981;28;20052;-85
2024/01/30 00:12:34;;;;;;;1.05;1.02;;;17.50;75.00;;;;;;5024590;28;20065;-85
2024/01/30 00:14:59;;;;;;;1.10;1.00;;;17.50;74.90;;;;;;5022905;28;20037;-84
2024/01/30 00:17:26;;;;;;;1.08;1.08;;;17.50;74.90;;;;;;5021935;28;20407;-84
2024/01/30 00:19:51;;;;;;;1.20;0.90;;;17.50;74.80;;;;;;5020273;28;20068;-84
2024/01/30 00:22:17;;;;;;;1.38;1.23;;;17.50;74.80;;;;;;5022950;28;20025;-84
2024/01/30 00:24:43;;;;;;;1.13;0.95;;;17.50;74.80;;;;;;5005448;28;20037;-84
2024/01/30 00:27:08;;;;;;;1.35;1.25;;;17.50;74.80;;;;;;5021841;28;20109;-84
2024/01/30 00:29:34;;;;;;;2.10;1.10;;;17.50;74.80;;;;;;5024616;28;20018;-84
2024/01/30 00:32:00;;;;;;;1.52;1.05;;;17.50;74.80;;;;;;5022976;28;20033;-84
2024/01/30 00:34:25;;;;;;;1.25;1.10;;;17.50;75.10;;;;;;5023601;28;20056;-84
2024/01/30 00:36:51;;;;;;;1.60;1.15;;;17.50;74.70;;;;;;5022369;28;20088;-84
2024/01/30 00:39:19;;;;;;;1.05;0.95;;;17.50;74.70;;;;;;5024035;28;20021;-84
2024/01/30 00:41:45;;;;;;;1.02;1.02;;;17.50;74.80;;;;;;5021362;28;20057;-84
2024/01/30 00:44:10;;;;;;;1.75;1.25;;;17.50;74.70;;;;;;4992246;28;20026;-84
2024/01/30 00:46:36;;;;;;;1.75;1.13;;;17.50;74.80;;;;;;5026689;28;20381;-83
2024/01/30 00:49:02;;;;;;;1.15;1.05;;;17.50;74.90;;;;;;5028363;28;20063;-83
2024/01/30 00:51:29;;;;;;;1.38;1.27;;;17.50;74.70;;;;;;5028522;28;20176;-82
2024/01/30 00:53:55;;;;;;;2.35;1.00;;;17.40;74.70;;;;;;5026402;28;20625;-83
2024/01/30 00:56:20;;;;;;;1.77;1.67;;;17.50;74.80;;;;;;5026715;28;20119;-82
2024/01/30 00:58:46;;;;;;;1.58;1.00;;;17.50;74.80;;;;;;5028104;28;20108;-85
2024/01/30 01:01:12;;;;;;;1.35;1.08;;;17.40;74.70;;;;;;5029789;28;20069;-84
2024/01/30 01:03:37;;;;;;;1.33;1.17;;;17.50;74.80;;;;;;5025911;28;20061;-85
2024/01/30 01:06:03;;;;;;;1.10;1.08;;;17.50;74.80;;;;;;5038412;28;20022;-85
2024/01/30 01:08:29;;;;;;;1.20;1.10;;;17.50;74.80;;;;;;5025737;28;20117;-85
2024/01/30 01:10:54;;;;;;;1.33;1.23;;;17.50;74.70;;;;;;5025211;28;20034;-85
2024/01/30 01:13:20;;;;;;;1.52;1.42;;;17.40;74.70;;;;;;5029231;28;20036;-84
2024/01/30 01:15:45;;;;;;;1.23;1.10;;;17.50;74.80;;;;;;5025475;28;20029;-84
2024/01/30 01:18:11;;;;;;;2.75;1.17;;;17.50;74.80;;;;;;5024012;28;20021;-84
2024/01/30 01:20:36;;;;;;;3.58;1.42;;;17.50;74.80;;;;;;5026358;28;20407;-84
2024/01/30 01:23:02;;;;;;;1.20;1.10;;;17.50;74.80;;;;;;5026405;28;20027;-84
2024/01/30 01:25:27;;;;;;;1.45;1.35;;;17.50;74.80;;;;;;5012468;28;20037;-84
2024/01/30 01:27:53;;;;;;;1.63;1.52;;;17.50;74.80;;;;;;5028705;28;20033;-84
2024/01/30 01:30:21;;;;;;;1.52;1.30;;;17.50;74.90;;;;;;5027309;28;20032;-84
2024/01/30 01:32:56;;;;;;;2.45;1.40;;;17.40;75.00;;;;;;5027842;28;20087;-84
2024/01/30 01:35:24;;;;;;;1.10;1.00;;;17.40;75.00;;;;;;5026857;28;20132;-84
2024/01/30 01:37:54;;;;;;;1.10;1.00;;;17.40;74.90;;;;;;5023665;28;20066;-85
2024/01/30 01:40:23;;;;;;;1.30;1.20;;;17.40;75.00;;;;;;5013521;28;20052;-84
2024/01/30 01:42:52;;;;;;;1.48;1.17;;;17.50;75.10;;;;;;5028899;28;20037;-84
2024/01/30 01:45:18;;;;;;;1.05;1.05;;;17.50;75.10;;;;;;5027274;28;20020;-84
2024/01/30 01:47:45;;;;;;;1.25;1.15;;;17.40;74.80;;;;;;5025078;28;20021;-84
2024/01/30 01:50:14;;;;;;;2.80;1.50;;;17.50;75.80;;;;;;5007950;28;20084;-85
2024/01/30 01:52:40;;;;;;;1.27;1.17;;;17.40;74.90;;;;;;4995274;28;20021;-84
2024/01/30 01:55:06;;;;;;;1.65;1.00;;;17.40;74.80;;;;;;5011971;28;20456;-84
2024/01/30 01:57:33;;;;;;;1.00;1.00;;;17.50;75.10;;;;;;5009193;28;20083;-85
2024/01/30 01:59:58;;;;;;;1.13;1.02;;;17.40;74.90;;;;;;5025661;28;20057;-85
2024/01/30 02:02:24;;;;;;;1.13;1.10;;;17.40;74.80;;;;;;4991774;28;20491;-85
2024/01/30 02:04:49;;;;;;;1.13;1.02;;;17.40;75.70;;;;;;5009259;28;20482;-84
2024/01/30 02:07:15;;;;;;;1.35;1.10;;;17.40;74.80;;;;;;5010956;28;20050;-85
2024/01/30 02:09:40;;;;;;;1.38;1.23;;;17.40;75.00;;;;;;5025347;28;20030;-85
2024/01/30 02:12:06;;;;;;;1.70;1.20;;;17.40;75.20;;;;;;5007688;28;20025;-85
2024/01/30 02:14:32;;;;;;;1.30;1.20;;;17.40;75.30;;;;;;5025910;28;20026;-86
2024/01/30 02:16:57;;;;;;;1.35;1.25;;;17.40;75.40;;;;;;5025891;28;20036;-86
2024/01/30 02:19:23;;;;;;;1.45;1.30;;;17.40;75.70;;;;;;5026937;28;20103;-85
2024/01/30 02:21:48;;;;;;;1.60;1.10;;;17.40;76.00;;;;;;5025721;28;20021;-85
2024/01/30 02:24:14;;;;;;;1.30;1.20;;;17.50;76.20;;;;;;5023458;28;20045;-85
2024/01/30 02:26:39;;;;;;;1.23;1.08;;;17.50;76.50;;;;;;5023923;28;20454;-85
2024/01/30 02:29:05;;;;;;;1.63;0.90;;;17.40;76.50;;;;;;5024431;28;20047;-85
2024/01/30 02:31:30;;;;;;;1.40;1.30;;;17.50;76.70;;;;;;5026592;28;20056;-84
2024/01/30 02:33:56;;;;;;;1.63;1.10;;;17.50;76.80;;;;;;5024632;28;20040;-83
2024/01/30 02:36:21;;;;;;;1.20;1.05;;;17.50;76.70;;;;;;5006079;28;20048;-83
2024/01/30 02:38:47;;;;;;;1.40;1.27;;;17.50;76.90;;;;;;5025025;28;20465;-84
2024/01/30 02:41:13;;;;;;;0.88;0.85;;;17.40;76.90;;;;;;5007676;28;20041;-84
2024/01/30 02:43:38;;;;;;;0.98;0.98;;;17.50;76.90;;;;;;5024991;28;20044;-84
2024/01/30 02:46:04;;;;;;;2.45;1.00;;;17.50;76.90;;;;;;5008738;28;20036;-85
2024/01/30 02:48:29;;;;;;;0.80;0.80;;;17.50;77.00;;;;;;5022760;28;20550;-83
2024/01/30 02:50:55;;;;;;;1.10;0.90;;;17.40;76.70;;;;;;5022455;28;20022;-83
2024/01/30 02:53:21;;;;;;;0.80;0.80;;;17.40;76.50;;;;;;5024306;28;20049;-83
2024/01/30 02:55:46;;;;;;;0.90;0.90;;;17.50;76.40;;;;;;5024771;28;20096;-84
2024/01/30 02:58:12;;;;;;;1.17;0.90;;;17.40;76.10;;;;;;5025506;28;20037;-84
2024/01/30 03:00:37;;;;;;;1.30;1.20;;;17.50;76.20;;;;;;5022709;28;20021;-84
2024/01/30 03:03:03;;;;;;;1.20;1.00;;;17.40;75.90;;;;;;5023533;28;20033;-84
2024/01/30 03:05:28;;;;;;;0.68;0.68;;;17.40;76.00;;;;;;5024661;28;20487;-83
2024/01/30 03:07:54;;;;;;;0.77;0.75;;;17.50;75.90;;;;;;5024167;28;20025;-83
2024/01/30 03:10:20;;;;;;;0.90;0.90;;;17.40;75.70;;;;;;5026130;28;20029;-83
2024/01/30 03:12:45;;;;;;;0.88;0.88;;;17.40;75.70;;;;;;5006296;28;20025;-85
2024/01/30 03:15:11;;;;;;;1.13;1.08;;;17.40;76.50;;;;;;5021068;28;20033;-85
2024/01/30 03:17:36;;;;;;;0.77;0.70;;;17.40;75.60;;;;;;5024288;28;20056;-85
2024/01/30 03:20:03;;;;;;;0.80;0.80;;;17.50;75.60;;;;;;5021275;28;20090;-86
2024/01/30 03:22:29;;;;;;;0.68;0.68;;;17.40;75.50;;;;;;5023603;28;20102;-86
2024/01/30 03:24:54;;;;;;;0.88;0.88;;;17.40;75.50;;;;;;5025381;28;20538;-85
2024/01/30 03:27:20;;;;;;;0.90;0.70;;;17.40;75.30;;;;;;5009449;28;20026;-84
2024/01/30 03:29:46;;;;;;;0.85;0.85;;;17.40;75.40;;;;;;5025597;28;20029;-83
2024/01/30 03:32:11;;;;;;;0.90;0.90;;;17.40;75.20;;;;;;5023916;28;20091;-84
2024/01/30 03:34:37;;;;;;;0.98;0.90;;;17.40;75.20;;;;;;5023182;28;20068;-84
2024/01/30 03:37:03;;;;;;;0.63;0.60;;;17.40;75.20;;;;;;5026845;28;20037;-84
2024/01/30 03:39:28;;;;;;;0.70;0.70;;;17.40;75.10;;;;;;5023716;28;20036;-83
2024/01/30 03:41:54;;;;;;;0.70;0.70;;;17.40;75.10;;;;;;5023192;28;20120;-83
2024/01/30 03:44:19;;;;;;;0.70;0.70;;;17.40;75.00;;;;;;5023703;28;20441;-84
2024/01/30 03:46:45;;;;;;;0.88;0.80;;;17.40;75.00;;;;;;5024623;28;22436;-84
2024/01/30 03:49:11;;;;;;;0.75;0.75;;;17.40;75.00;;;;;;4993529;28;20032;-83
2024/01/30 03:51:36;;;;;;;0.80;0.80;;;17.40;75.00;;;;;;4991354;28;20025;-84
2024/01/30 03:54:02;;;;;;;0.60;0.60;;;17.40;74.90;;;;;;5009808;28;20056;-83
2024/01/30 03:56:27;;;;;;;0.70;0.70;;;17.40;75.00;;;;;;5020726;28;20505;-84
2024/01/30 03:58:53;;;;;;;0.60;0.60;;;17.40;75.00;;;;;;5006090;28;20061;-83
2024/01/30 04:01:19;;;;;;;0.73;0.70;;;17.30;74.80;;;;;;5011197;28;20032;-83
2024/01/30 04:03:44;;;;;;;0.55;0.55;;;17.40;74.90;;;;;;5008068;28;20076;-83
2024/01/30 04:06:10;;;;;;;0.70;0.70;;;17.30;74.90;;;;;;5024090;28;20464;-83
2024/01/30 04:08:36;;;;;;;0.70;0.70;;;17.40;74.90;;;;;;5005868;28;20410;-83
2024/01/30 04:11:05;;;;;;;0.60;0.60;;;17.30;74.80;;;;;;5004755;28;20037;-83
2024/01/30 04:13:31;;;;;;;0.95;0.77;;;17.40;74.80;;;;;;5022278;28;20086;-83
2024/01/30 04:15:58;;;;;;;0.80;0.60;;;17.40;74.80;;;;;;5010967;28;20036;-83
2024/01/30 04:18:24;;;;;;;0.70;0.70;;;17.40;74.70;;;;;;5008954;28;20049;-84
2024/01/30 04:20:49;;;;;;;0.52;0.50;;;17.30;74.80;;;;;;5030139;28;20057;-84
2024/01/30 04:23:15;;;;;;;0.60;0.60;;;17.30;74.80;;;;;;5024564;28;20037;-84
2024/01/30 04:25:40;;;;;;;0.80;0.80;;;17.30;74.70;;;;;;5029179;28;20037;-84
2024/01/30 04:28:06;;;;;;;0.77;0.77;;;17.30;74.80;;;;;;5030633;28;20032;-84
2024/01/30 04:30:31;;;;;;;0.60;0.60;;;17.30;74.60;;;;;;5028615;28;20026;-85
2024/01/30 04:32:57;;;;;;;0.60;0.57;;;17.30;74.80;;;;;;5010811;28;20059;-85
2024/01/30 04:35:24;;;;;;;0.70;0.70;;;17.30;74.70;;;;;;5023666;28;20231;-85
2024/01/30 04:37:52;;;;;;;0.65;0.55;;;17.30;74.70;;;;;;4995553;28;20051;-86
2024/01/30 04:40:18;;;;;;;0.98;0.80;;;17.30;74.80;;;;;;5029252;28;20499;-86
2024/01/30 04:42:44;;;;;;;0.90;0.90;;;17.30;74.60;;;;;;5012412;28;20037;-86
2024/01/30 04:45:09;;;;;;;0.68;0.68;;;17.30;74.70;;;;;;5023923;28;20407;-86
2024/01/30 04:47:35;;;;;;;0.60;0.60;;;17.30;74.70;;;;;;5026145;28;20049;-84
2024/01/30 04:50:01;;;;;;;0.95;0.95;;;17.30;74.70;;;;;;5010802;28;20026;-84
2024/01/30 04:52:26;;;;;;;0.70;0.70;;;17.30;74.60;;;;;;5028381;28;20028;-86
2024/01/30 04:54:52;;;;;;;1.05;0.70;;;17.30;74.60;;;;;;5027022;28;20037;-87
2024/01/30 04:57:17;;;;;;;0.70;0.70;;;17.30;74.70;;;;;;5011197;28;20029;-87
2024/01/30 04:59:43;;;;;;;0.50;0.50;;;17.30;74.50;;;;;;5010988;28;20031;-84
2024/01/30 05:02:09;;;;;;;0.60;0.60;;;17.30;75.30;;;;;;5026171;28;20020;-85
2024/01/30 05:04:34;;;;;;;0.70;0.70;;;17.30;74.60;;;;;;5027769;28;20122;-84
2024/01/30 05:07:00;;;;;;;0.60;0.60;;;17.30;74.60;;;;;;5028472;28;20033;-85
2024/01/30 05:09:25;;;;;;;0.75;0.60;;;17.30;74.50;;;;;;5041922;28;20487;-83
2024/01/30 05:11:51;;;;;;;0.60;0.60;;;17.30;74.50;;;;;;5027815;28;20470;-84
2024/01/30 05:14:17;;;;;;;0.70;0.70;;;17.30;74.60;;;;;;5026601;28;20060;-84
2024/01/30 05:16:46;;;;;;;0.60;0.60;;;17.30;74.60;;;;;;5025891;28;20059;-85
2024/01/30 05:19:13;;;;;;;0.75;0.75;;;17.30;75.10;;;;;;5028337;28;20517;-85
2024/01/30 05:21:38;;;;;;;0.63;0.63;;;17.20;74.60;;;;;;5023845;28;20407;-85
2024/01/30 05:24:04;;;;;;;0.57;0.57;;;17.30;74.50;;;;;;5027672;28;20029;-85
2024/01/30 05:26:30;;;;;;;0.60;0.60;;;17.30;74.50;;;;;;5022868;28;20033;-84
2024/01/30 05:28:55;;;;;;;0.82;0.82;;;17.30;74.50;;;;;;5023677;28;20026;-84
2024/01/30 05:31:21;;;;;;;0.80;0.80;;;17.30;74.40;;;;;;5027068;28;20017;-84
2024/01/30 05:33:46;;;;;;;0.50;0.50;;;17.30;74.40;;;;;;5025504;28;20113;-82
2024/01/30 05:36:13;;;;;;;0.50;0.50;;;17.20;74.40;;;;;;5027598;28;20060;-84
2024/01/30 05:38:39;;;;;;;0.50;0.50;;;17.20;74.40;;;;;;5024738;28;20569;-81
2024/01/30 05:41:04;;;;;;;0.50;0.50;;;17.20;75.00;;;;;;5026773;28;20049;-82
2024/01/30 05:43:30;;;;;;;0.40;0.40;;;17.20;74.40;;;;;;5010612;28;20045;-85
2024/01/30 05:45:55;;;;;;;0.50;0.50;;;17.20;74.30;;;;;;5011171;28;20021;-85
2024/01/30 05:48:21;;;;;;;0.30;0.30;;;17.20;74.40;;;;;;5024102;28;20032;-85
2024/01/30 05:50:47;;;;;;;0.50;0.50;;;17.30;74.40;;;;;;5023801;28;20569;-85
2024/01/30 05:53:12;;;;;;;0.50;0.50;;;17.20;74.40;;;;;;5025534;28;20049;-84
2024/01/30 05:55:38;;;;;;;0.47;0.47;;;17.20;74.30;;;;;;5025443;28;20041;-85
2024/01/30 05:58:03;;;;;;;0.60;0.50;;;17.20;74.40;;;;;;5011516;28;20028;-83
2024/01/30 06:00:29;;;;;;;0.50;0.50;;;17.20;74.40;;;;;;5024881;28;20051;-84
2024/01/30 06:02:55;;;;;;;0.57;0.50;;;17.20;74.30;;;;;;5010210;28;20029;-85
2024/01/30 06:05:20;;;;;;;0.40;0.40;;;17.20;74.40;;;;;;4996444;28;20041;-85
2024/01/30 06:07:46;;;;;;;0.57;0.50;;;17.20;74.40;;;;;;4992880;28;20415;-84
2024/01/30 06:10:12;;;;;;;0.40;0.40;;;17.20;74.40;;;;;;5025873;28;20051;-84
2024/01/30 06:12:37;;;;;;;0.35;0.35;;;17.20;74.40;;;;;;5024625;28;20067;-84
2024/01/30 06:15:04;;;;;;;0.65;0.30;;;17.20;74.30;;;;;;5027199;28;20104;-83
2024/01/30 06:17:29;;;;;;;0.40;0.40;;;17.20;74.30;;;;;;5024351;28;20037;-84
2024/01/30 06:19:55;;;;;;;0.40;0.40;;;17.20;74.30;;;;;;5021450;28;20422;-84
2024/01/30 06:22:20;;;;;;;0.30;0.30;;;17.20;74.40;;;;;;5025298;28;20033;-84
2024/01/30 06:24:48;;;;;;;0.38;0.38;;;17.10;74.20;;;;;;5021564;28;20052;-84
2024/01/30 06:27:14;;;;;;;0.32;0.30;;;17.20;74.40;;;;;;5024721;28;20017;-85
2024/01/30 06:29:40;;;;;;;0.30;0.30;;;17.10;74.10;;;;;;4994111;28;20488;-85
2024/01/30 06:32:06;;;;;;;0.43;0.43;;;17.20;73.50;;;;;;5022650;28;20026;-85
2024/01/30 06:34:32;;;;;;;0.28;0.28;;;17.20;74.30;;;;;;5009345;28;20087;-84
2024/01/30 06:36:57;;;;;;;0.50;0.40;;;17.10;74.20;;;;;;5026835;28;20072;-82
2024/01/30 06:39:23;;;;;;;0.45;0.45;;;17.20;75.00;;;;;;5022127;28;20033;-82
2024/01/30 06:41:49;;;;;;;0.40;0.40;;;17.20;74.30;;;;;;5008902;28;20042;-85
2024/01/30 06:44:14;;;;;;;0.60;0.60;;;17.20;74.30;;;;;;5021767;28;20041;-85
2024/01/30 06:46:40;;;;;;;0.40;0.40;;;17.10;74.10;;;;;;5024133;28;20033;-82
2024/01/30 06:49:05;;;;;;;0.68;0.40;;;17.10;74.10;;;;;;5010658;28;20052;-83
2024/01/30 06:51:31;;;;;;;0.80;0.40;;;17.10;74.10;;;;;;4992728;28;20038;-83
2024/01/30 06:53:57;;;;;;;0.40;0.40;;;17.10;74.10;;;;;;5025256;28;20037;-83
2024/01/30 06:56:22;;;;;;;0.38;0.38;;;17.20;73.90;;;;;;5008287;28;20030;-81
2024/01/30 06:58:48;;;;;;;0.50;0.50;;;17.20;74.10;;;;;;5024551;28;20068;-84
2024/01/30 07:01:14;;;;;;;0.40;0.40;;;17.20;74.20;;;;;;4993504;28;20503;-82
2024/01/30 07:03:40;;;;;;;0.50;0.50;;;17.20;74.00;;;;;;5009712;28;20041;-82
2024/01/30 07:06:05;;;;;;;0.50;0.50;;;17.20;74.10;;;;;;5025869;28;20647;-83
2024/01/30 07:08:31;;;;;;;0.45;0.45;;;17.20;74.40;;;;;;5021488;28;20033;-82
2024/01/30 07:10:57;;;;;;;1.77;0.50;;;17.20;74.40;;;;;;5022492;28;20040;-82
2024/01/30 07:13:22;;;;;;;0.43;0.43;;;17.20;74.40;;;;;;5009051;28;20032;-82
2024/01/30 07:15:48;;;;;;;0.80;0.80;;;17.20;74.30;;;;;;5007983;28;20025;-82
2024/01/30 07:18:13;;;;;;;0.40;0.40;;;17.20;74.30;;;;;;5007371;28;20126;-81
2024/01/30 07:20:49;;;;;;;0.30;0.30;;;17.20;74.30;;;;;;5023782;28;20051;-83
2024/01/30 07:23:17;;;;;;;0.30;0.30;;;17.20;74.30;;;;;;5008923;28;20087;-82
2024/01/30 07:25:48;;;;;;;0.50;0.50;;;17.20;74.20;;;;;;5023541;28;20033;-82
2024/01/30 07:28:16;;;;;;;0.30;0.30;;;17.20;74.20;;;;;;5004891;28;20034;-82
2024/01/30 07:30:42;;;;;;;0.40;0.40;;;17.20;74.30;;;;;;5021100;28;20026;-84
2024/01/30 07:33:08;;;;;;;0.30;0.30;;;17.20;74.20;;;;;;5003261;28;20037;-84
2024/01/30 07:35:34;;;;;;;0.20;0.20;;;17.20;74.30;;;;;;5020572;28;20083;-84
2024/01/30 07:37:59;;;;;;;0.38;0.38;;;17.20;74.40;;;;;;5002971;28;20546;-83
2024/01/30 07:40:25;;;;;;;1.38;0.57;;;17.20;74.10;;;;;;5023359;28;20553;-83
2024/01/30 07:42:52;;;;;;;0.30;0.30;;;17.20;74.10;;;;;;5017534;28;20053;-83
2024/01/30 07:45:22;;;;;;;0.20;0.20;;;17.20;74.20;;;;;;5001621;28;20046;-84
2024/01/30 07:47:50;;;;;;;0.30;0.28;;;17.20;74.10;;;;;;5018685;28;20516;-84
2024/01/30 07:50:16;;;;;;;0.30;0.30;;;17.10;74.00;;;;;;5019706;28;20030;-83
2024/01/30 07:52:42;;;;;;;0.90;0.47;;;17.20;74.00;;;;;;5005344;28;20055;-82
2024/01/30 07:55:08;;;;;;;0.32;0.30;;;17.20;74.20;;;;;;5023451;28;20041;-83
2024/01/30 07:57:34;;;;;;;0.32;0.32;;;17.10;74.10;;;;;;5005176;28;20136;-83
2024/01/30 08:00:00;;;;;;;0.32;0.32;;;17.10;73.90;;;;;;5018655;28;20049;-83
2024/01/30 08:02:25;;;;;;;0.32;0.32;;;17.10;74.10;;;;;;5007255;28;20427;-83
2024/01/30 08:04:51;;;;;;;0.40;0.40;;;17.10;73.90;;;;;;5019969;28;20488;-83
2024/01/30 08:07:17;;;;;;;0.30;0.30;;;17.10;73.80;;;;;;5022139;28;20438;-83
2024/01/30 08:09:43;;;;;;;0.40;0.30;;;17.10;73.90;;;;;;5022505;28;20461;-83
2024/01/30 08:12:09;;;;;;;0.30;0.30;;;17.10;74.00;;;;;;5020686;28;20033;-83
2024/01/30 08:14:35;;;;;;;0.30;0.30;;;17.10;73.80;;;;;;5020950;28;20071;-82
2024/01/30 08:17:00;;;;;;;0.20;0.10;;;17.10;73.80;;;;;;5020984;28;20045;-82
2024/01/30 08:19:26;;;;;;;0.82;0.20;;;17.10;73.80;;;;;;5020651;28;20052;-82
2024/01/30 08:21:51;;;;;;;0.20;0.20;;;17.10;73.80;;;;;;5022274;28;20029;-82
2024/01/30 08:24:17;;;;;;;0.30;0.30;;;17.10;73.70;;;;;;5021270;28;20423;-83
2024/01/30 08:26:43;;;;;;;0.63;0.30;;;17.10;73.60;;;;;;4999030;28;20188;-83
2024/01/30 08:29:08;;;;;;;0.52;0.30;;;17.10;73.80;;;;;;5019383;28;20523;-82
2024/01/30 08:31:34;;;;;;;0.30;0.30;;;17.10;73.80;;;;;;5029459;28;20046;-83
2024/01/30 08:33:59;;;;;;;0.40;0.40;;;17.10;73.60;;;;;;4989859;28;20037;-82
2024/01/30 08:36:25;;;;;;;0.13;0.13;;;17.10;73.50;;;;;;5018670;28;20053;-82
2024/01/30 08:38:50;;;;;;;0.30;0.30;;;17.10;73.80;;;;;;5015455;28;20058;-82
2024/01/30 08:41:16;;;;;;;0.25;0.20;;;17.10;74.40;;;;;;4976022;28;20049;-83
2024/01/30 08:43:41;;;;;;;0.25;0.25;;;17.10;73.60;;;;;;4990297;28;20111;-82
2024/01/30 08:46:07;;;;;;;0.30;0.30;;;17.10;73.50;;;;;;5004512;28;20074;-82
2024/01/30 08:48:33;;;;;;;0.30;0.28;;;17.10;73.50;;;;;;4999018;28;20503;-83
2024/01/30 08:50:58;;;;;;;0.30;0.30;;;17.10;73.70;;;;;;5015225;28;20041;-82
2024/01/30 08:53:24;;;;;;;0.30;0.30;;;17.10;73.50;;;;;;4991694;28;20033;-83
2024/01/30 08:55:50;;;;;;;0.32;0.32;;;17.00;73.50;;;;;;5002580;28;20126;-84
2024/01/30 08:58:18;;;;;;;0.57;0.57;;;17.10;73.50;;;;;;5023018;28;20537;-84
2024/01/30 09:00:43;;;;;;;0.20;0.20;;;17.10;74.20;;;;;;5021336;28;20103;-83
2024/01/30 09:03:09;;;;;;;0.20;0.20;;;17.10;73.50;;;;;;5002234;28;20499;-83
2024/01/30 09:05:34;;;;;;;0.30;0.30;;;17.00;73.50;;;;;;5007072;28;20048;-83
2024/01/30 09:08:00;;;;;;;0.30;0.30;;;17.10;74.20;;;;;;5024121;28;20065;-83
2024/01/30 09:10:26;;;;;;;0.30;0.30;;;17.10;73.40;;;;;;5026058;28;20038;-83
2024/01/30 09:12:52;;;;;;;0.57;0.30;;;17.00;73.30;;;;;;5041214;28;20041;-83
2024/01/30 09:15:18;;;;;;;0.20;0.20;;;17.10;73.40;;;;;;5026846;28;20042;-84
2024/01/30 09:17:44;;;;;;;0.15;0.15;;;17.10;73.50;;;;;;4994872;28;20044;-83
2024/01/30 09:20:10;;;;;;;0.28;0.28;;;17.10;73.40;;;;;;5004503;28;20065;-83
2024/01/30 09:22:36;;;;;;;0.20;0.20;;;17.10;73.50;;;;;;4993342;28;20033;-84
2024/01/30 09:25:01;;;;;;;0.30;0.30;;;17.10;73.50;;;;;;5025061;28;20064;-82
2024/01/30 09:27:27;;;;;;;0.25;0.25;;;17.10;73.40;;;;;;4993706;28;20120;-82
2024/01/30 09:29:52;;;;;;;0.30;0.30;;;17.10;73.50;;;;;;4976466;28;20512;-83
2024/01/30 09:32:18;;;;;;;0.10;0.10;;;17.10;73.60;;;;;;5004463;28;20034;-82
2024/01/30 09:34:44;;;;;;;0.20;0.20;;;17.10;73.70;;;;;;5003627;28;20054;-82
2024/01/30 09:37:09;;;;;;;0.10;0.10;;;17.10;73.50;;;;;;5007263;28;20533;-83
2024/01/30 09:39:35;;;;;;;0.20;0.20;;;17.10;73.70;;;;;;5002464;28;20550;-83
2024/01/30 09:42:19;;;;;;;0.20;0.20;;;17.10;73.40;;;;;;5004983;28;20030;-83
2024/01/30 09:44:45;;;;;;;0.13;0.13;;;17.10;73.40;;;;;;5013913;28;20085;-82
2024/01/30 09:47:10;;;;;;;0.20;0.20;;;17.20;73.20;;;;;;5003665;28;20508;-82
2024/01/30 09:49:36;;;;;;;0.20;0.20;;;17.20;73.10;;;;;;5023507;28;20124;-84
2024/01/30 09:52:02;;;;;;;0.25;0.25;;;17.20;73.00;;;;;;5037310;28;20034;-82
2024/01/30 09:54:34;;;;;;;0.10;0.10;;;17.20;73.00;;;;;;5005617;28;20046;-83
2024/01/30 09:56:59;;;;;;;0.20;0.20;;;17.30;73.00;;;;;;5002840;28;20034;-82
2024/01/30 09:59:25;;;;;;;0.20;0.20;;;17.30;72.80;;;;;;4988317;28;20292;-82
2024/01/30 10:01:54;;;;;;;0.30;0.30;;;17.30;72.70;;;;;;5003962;28;20097;-82
2024/01/30 10:04:19;;;;;;;0.63;0.20;;;17.40;72.70;;;;;;5000543;28;20522;-82
2024/01/30 10:06:45;;;;;;;0.20;0.20;;;17.40;72.60;;;;;;5023965;28;20041;-81
2024/01/30 10:09:11;;;;;;;0.20;0.20;;;17.40;72.50;;;;;;5008161;28;20037;-81
2024/01/30 10:11:36;;;;;;;0.30;0.30;;;17.40;72.30;;;;;;5020869;28;20083;-81
2024/01/30 10:14:02;;;;;;;0.20;0.20;;;17.40;72.40;;;;;;5022917;28;20042;-82
2024/01/30 10:16:28;;;;;;;0.20;0.20;;;17.50;72.20;;;;;;5008528;28;20073;-82
2024/01/30 10:18:53;;;;;;;0.15;0.10;;;17.50;72.20;;;;;;5024816;28;20442;-81
2024/01/30 10:21:19;;;;;;;0.20;0.20;;;17.50;72.20;;;;;;5023533;28;20037;-81
2024/01/30 10:23:44;;;;;;;0.20;0.20;;;17.50;72.20;;;;;;5005751;28;20049;-82
2024/01/30 10:26:10;;;;;;;0.10;0.10;;;17.60;72.30;;;;;;5053266;28;20074;-81
2024/01/30 10:28:36;;;;;;;0.10;0.10;;;17.60;72.20;;;;;;4991039;28;20041;-81
2024/01/30 10:31:03;;;;;;;0.22;0.15;;;17.60;71.90;;;;;;5024444;28;20423;-81
2024/01/30 10:33:32;;;;;;;0.20;0.20;;;17.60;72.00;;;;;;5020051;28;20046;-82
2024/01/30 10:36:04;;;;;;;0.30;0.30;;;17.70;72.00;;;;;;5024374;28;20033;-81
2024/01/30 10:38:30;;;;;;;0.20;0.20;;;17.70;71.90;;;;;;5004591;28;20416;-78
2024/01/30 10:41:00;;;;;;;0.30;0.30;;;17.70;72.00;;;;;;4986157;28;20061;-78
2024/01/30 10:43:35;;;;;;;0.20;0.20;;;17.70;71.90;;;;;;5024841;28;20053;-79
2024/01/30 10:46:19;;;;;;;0.20;0.20;;;17.70;71.90;;;;;;5035951;28;20080;-81
2024/01/30 10:48:48;;;;;;;;;;;17.70;72.10;;;;;;5023888;28;20077;-82
2024/01/30 10:51:14;;;;;;;0.35;0.35;;;17.80;73.00;;;;;;5019873;28;19963;-78
2024/01/30 10:53:40;;;;;;;0.70;0.50;;;17.80;72.40;;;;;;5005013;28;20041;-79
2024/01/30 10:56:05;;;;;;;1.60;0.40;;;17.90;73.20;;;;;;5005247;28;20713;-78
2024/01/30 10:58:31;;;;;;;0.35;0.35;;;17.80;73.20;;;;;;5020958;28;20266;-79
2024/01/30 11:00:56;;;;;;;0.93;0.38;;;17.80;73.50;;;;;;5016471;28;20132;-80
2024/01/30 11:03:22;;;;;;;1.52;0.40;;;17.90;73.60;;;;;;5022580;28;20049;-78
2024/01/30 11:05:52;;;;;;;1.65;0.40;;;17.90;73.40;;;;;;4995929;28;20029;-78
2024/01/30 11:08:28;;;;;;;1.98;0.50;;;17.90;73.00;;;;;;4990036;28;20045;-78
2024/01/30 11:10:57;;;;;;;1.85;0.40;;;17.90;73.20;;;;;;5003582;28;20049;-79
2024/01/30 11:13:29;;;;;;;0.32;0.30;;;18.00;73.20;;;;;;5047074;28;20079;-78
2024/01/30 11:15:54;;;;;;;0.70;0.32;;;18.00;72.90;;;;;;4996201;28;20052;-80
2024/01/30 11:18:26;;;;;;;0.60;0.30;;;18.00;73.90;;;;;;4980383;28;20451;-78
2024/01/30 11:20:52;;;;;;;0.32;0.30;;;18.00;74.20;;;;;;4995847;28;20037;-79
2024/01/30 11:23:17;;;;;;;0.52;0.35;;;18.00;73.90;;;;;;5052198;28;20439;-81
2024/01/30 11:25:44;;;;;;;0.68;0.68;;;17.90;73.50;;;;;;5023562;28;20060;-78
2024/01/30 11:28:15;;;;;;;0.93;0.40;;;18.00;73.00;;;;;;5007045;28;20062;-77
2024/01/30 11:30:40;;;;;;;1.60;0.73;;;17.90;72.50;;;;;;5021353;28;20396;-79
2024/01/30 11:33:08;;;;;;;2.65;0.60;;;18.00;72.50;;;;;;5021288;28;20514;-79
2024/01/30 11:35:40;;;;;;;1.60;0.98;;;18.00;74.60;;;;;;5021839;28;20103;-78
2024/01/30 11:38:06;;;;;;;2.42;1.20;;;17.90;76.30;;;;;;5019787;28;20275;-79
2024/01/30 11:40:35;;;;;;;1.42;1.20;;;17.90;75.80;;;;;;4997549;28;20041;-78
2024/01/30 11:43:01;;;;;;;3.67;1.90;;;17.90;76.60;;;;;;5024416;28;20111;-78
2024/01/30 11:45:27;;;;;;;2.92;1.45;;;17.90;79.00;;;;;;4980745;28;20050;-77
2024/01/30 11:47:52;;;;;;;1.88;0.90;;;17.90;80.40;;;;;;5021986;28;20446;-79
2024/01/30 11:50:18;;;;;;;1.83;0.75;;;18.00;78.30;;;;;;5021700;28;20396;-77
2024/01/30 11:52:44;;;;;;;1.17;0.60;;;18.00;76.10;;;;;;5004116;28;20050;-76
2024/01/30 11:55:09;;;;;;;1.98;0.60;;;18.00;76.90;;;;;;5020874;28;20164;-76
2024/01/30 11:57:36;;;;;;;1.33;0.60;;;18.10;76.50;;;;;;4996606;28;20614;-77
2024/01/30 12:00:09;;;;;;;0.70;0.40;;;18.10;75.90;;;;;;5007300;28;20030;-76
2024/01/30 12:02:39;;;;;;;0.60;0.30;;;18.10;75.90;;;;;;5011843;28;20183;-77
2024/01/30 12:05:07;;;;;;;1.30;0.47;;;18.20;76.40;;;;;;5022758;28;20076;-77
2024/01/30 12:07:33;;;;;;;1.90;0.60;;;18.20;75.10;;;;;;5013255;28;20543;-77
2024/01/30 12:09:59;;;;;;;0.95;0.45;;;18.20;74.60;;;;;;5023280;28;20099;-78
2024/01/30 12:12:28;;;;;;;1.23;0.70;;;18.30;74.50;;;;;;5032783;28;20403;-78
2024/01/30 12:14:54;;;;;;;2.15;0.50;;;18.30;74.10;;;;;;5021044;28;20046;-79
2024/01/30 12:17:29;;;;;;;0.88;0.50;;;18.30;73.90;;;;;;4987747;28;20447;-79
2024/01/30 12:20:06;;;;;;;2.25;0.38;;;18.40;73.40;;;;;;5020154;28;20075;-79
2024/01/30 12:22:44;;;;;;;4.75;0.40;;;18.40;73.00;;;;;;5035317;28;20427;-78
2024/01/30 12:25:10;;;;;;;0.70;0.30;;;18.40;72.80;;;;;;5023741;28;20124;-79
2024/01/30 12:27:36;;;;;;;1.48;0.40;;;18.30;72.80;;;;;;5022276;28;20124;-78
2024/01/30 12:30:14;;;;;;;2.80;0.52;;;18.20;72.60;;;;;;4996097;28;20454;-77
2024/01/30 12:32:43;;;;;;;0.80;0.30;;;18.30;72.90;;;;;;5013101;28;20073;-79
2024/01/30 12:35:13;;;;;;;0.73;0.20;;;18.30;72.80;;;;;;5020033;28;20030;-79
2024/01/30 12:37:39;;;;;;;2.42;0.93;;;18.30;73.60;;;;;;5024576;28;20050;-79
2024/01/30 12:40:09;;;;;;;0.77;0.77;;;18.30;74.80;;;;;;5051706;28;20036;-80
2024/01/30 12:42:34;;;;;;;1.10;0.70;;;18.30;76.80;;;;;;5019998;28;20053;-80